Time;durP1;ratioP1;P1;durP2;ratioP2;P2;SDS_P1;SDS_P2;PMS_P1;PMS_P2;Temp;Humidity;BMP_temperature;BMP_pressure;BME280_temperature;BME280_humidity;BME280_pressure;Samples;Min_cycle;Max_cycle;Signal;HPM_P1;HPM_P2
2023/10/30 00:01:38;;;;;;;3.20;0.22;;;;;;;14.89;100.00;100497.63;5048506;28;20032;-65
2023/10/30 00:04:05;;;;;;;1.80;0.50;;;;;;;14.91;100.00;100500.09;5052974;28;20052;-65
2023/10/30 00:06:31;;;;;;;1.40;0.20;;;;;;;14.93;100.00;100496.31;5049471;28;20506;-65
2023/10/30 00:08:56;;;;;;;1.67;0.50;;;;;;;14.94;100.00;100490.06;5049604;28;20090;-65
2023/10/30 00:11:21;;;;;;;1.35;0.30;;;;;;;14.96;100.00;100497.78;5053070;28;20083;-65
2023/10/30 00:13:47;;;;;;;3.60;0.60;;;;;;;14.94;100.00;100500.56;5049603;28;20025;-65
2023/10/30 00:16:12;;;;;;;1.80;0.50;;;;;;;14.93;100.00;100509.44;5049735;28;20020;-65
2023/10/30 00:18:41;;;;;;;1.70;0.50;;;;;;;14.95;100.00;100511.88;5047481;28;20163;-65
2023/10/30 00:21:08;;;;;;;2.15;0.68;;;;;;;14.97;100.00;100509.09;5046070;28;20037;-65
2023/10/30 00:23:33;;;;;;;0.98;0.35;;;;;;;14.94;100.00;100511.06;5046647;28;20166;-66
2023/10/30 00:25:59;;;;;;;1.50;0.50;;;;;;;14.94;100.00;100505.81;5050834;28;20037;-66
2023/10/30 00:28:27;;;;;;;2.30;0.30;;;;;;;14.97;100.00;100502.03;5048251;28;20386;-65
2023/10/30 00:30:53;;;;;;;1.58;0.40;;;;;;;14.99;100.00;100507.13;5051454;28;20509;-65
2023/10/30 00:33:18;;;;;;;1.10;0.50;;;;;;;14.99;100.00;100501.88;5048177;28;20024;-65
2023/10/30 00:35:44;;;;;;;1.42;0.47;;;;;;;14.98;100.00;100505.47;5050881;28;20059;-66
2023/10/30 00:38:09;;;;;;;1.85;0.38;;;;;;;14.98;100.00;100500.22;5048912;28;20584;-66
2023/10/30 00:40:35;;;;;;;1.20;0.40;;;;;;;14.99;100.00;100505.31;5048484;28;20045;-65
2023/10/30 00:43:00;;;;;;;1.75;0.40;;;;;;;14.98;100.00;100500.22;5045558;28;20149;-65
2023/10/30 00:45:25;;;;;;;3.38;0.40;;;;;;;14.94;100.00;100495.31;5051407;28;20056;-65
2023/10/30 00:47:51;;;;;;;1.92;0.32;;;;;;;14.92;100.00;100497.28;5049384;28;20028;-66
2023/10/30 00:50:17;;;;;;;2.85;0.47;;;;;;;14.90;100.00;100499.28;5051832;28;20084;-65
2023/10/30 00:52:42;;;;;;;0.90;0.32;;;;;;;14.95;100.00;100496.13;5047439;28;20072;-65
2023/10/30 00:55:08;;;;;;;1.05;0.30;;;;;;;14.97;100.00;100490.72;5047821;28;20048;-65
2023/10/30 00:57:33;;;;;;;1.05;0.30;;;;;;;14.94;100.00;100489.25;5047193;28;20124;-65
2023/10/30 00:59:59;;;;;;;0.60;0.30;;;;;;;14.92;100.00;100486.00;5045773;28;20029;-66
2023/10/30 01:02:24;;;;;;;0.80;0.40;;;;;;;14.92;100.00;100481.56;5046245;28;20021;-65
2023/10/30 01:04:50;;;;;;;0.43;0.20;;;;;;;14.90;100.00;100480.91;5048001;28;20032;-65
2023/10/30 01:07:15;;;;;;;1.58;0.30;;;;;;;14.90;100.00;100473.03;5049209;28;20117;-66
2023/10/30 01:09:41;;;;;;;1.02;0.22;;;;;;;14.88;100.00;100469.78;5051278;28;20029;-65
2023/10/30 01:12:06;;;;;;;2.05;0.60;;;;;;;14.86;100.00;100469.13;5050780;28;20025;-66
2023/10/30 01:14:32;;;;;;;2.97;0.40;;;;;;;14.87;100.00;100457.66;5047471;28;20029;-64
2023/10/30 01:16:57;;;;;;;1.23;0.30;;;;;;;14.87;100.00;100457.66;5047718;28;20036;-65
2023/10/30 01:19:23;;;;;;;1.15;0.30;;;;;;;14.88;100.00;100453.22;5048983;28;20025;-65
2023/10/30 01:21:48;;;;;;;4.22;0.50;;;;;;;14.90;100.00;100456.50;5047560;28;20032;-66
2023/10/30 01:24:13;;;;;;;1.15;0.45;;;;;;;14.91;100.00;100453.69;5047501;28;20033;-65
2023/10/30 01:26:39;;;;;;;0.90;0.32;;;;;;;14.93;100.00;100451.72;5048260;28;20029;-65
2023/10/30 01:29:05;;;;;;;1.52;0.30;;;;;;;14.96;100.00;100454.97;5047015;28;20082;-66
2023/10/30 01:31:30;;;;;;;0.75;0.22;;;;;;;14.96;100.00;100445.31;5045895;28;20492;-65
2023/10/30 01:33:56;;;;;;;1.02;0.20;;;;;;;14.99;100.00;100438.91;5051006;28;20029;-65
2023/10/30 01:36:22;;;;;;;1.08;0.25;;;;;;;14.98;100.00;100442.50;5047406;28;20037;-65
2023/10/30 01:38:48;;;;;;;1.05;0.20;;;;;;;14.98;100.00;100442.50;5047400;28;20523;-65
2023/10/30 01:41:13;;;;;;;1.00;0.40;;;;;;;14.94;100.00;100448.09;5048496;28;20032;-65
2023/10/30 01:43:39;;;;;;;0.88;0.30;;;;;;;14.93;100.00;100451.72;5047760;28;20032;-66
2023/10/30 01:46:05;;;;;;;1.50;0.30;;;;;;;14.96;100.00;100450.56;5047863;28;20393;-65
2023/10/30 01:48:35;;;;;;;1.15;0.40;;;;;;;14.94;100.00;100450.72;5046172;28;20047;-65
2023/10/30 01:51:02;;;;;;;1.35;0.25;;;;;;;14.96;100.00;100460.22;5051513;28;20072;-66
2023/10/30 01:53:30;;;;;;;3.13;0.40;;;;;;;14.97;100.00;100454.00;5044824;28;20036;-65
2023/10/30 01:55:56;;;;;;;1.05;0.30;;;;;;;14.96;100.00;100462.84;5049210;28;20119;-65
2023/10/30 01:58:23;;;;;;;2.58;0.30;;;;;;;14.96;100.00;100458.41;5045831;28;20032;-66
2023/10/30 02:00:50;;;;;;;2.70;0.30;;;;;;;15.01;100.00;100463.16;5044857;28;20045;-65
2023/10/30 02:03:15;;;;;;;3.42;0.30;;;;;;;15.03;100.00;100462.00;5046352;28;20037;-65
2023/10/30 02:05:41;;;;;;;3.50;0.40;;;;;;;15.03;100.00;100455.94;5045905;28;20454;-66
2023/10/30 02:08:08;;;;;;;2.10;0.30;;;;;;;15.04;100.00;100455.75;5048530;28;20052;-66
2023/10/30 02:10:33;;;;;;;0.68;0.30;;;;;;;15.01;100.00;100458.72;5051316;28;20501;-66
2023/10/30 02:13:00;;;;;;;1.00;0.20;;;;;;;15.04;100.00;100463.63;5047353;28;20029;-65
2023/10/30 02:15:25;;;;;;;0.65;0.20;;;;;;;15.03;100.00;100467.25;5047211;28;20025;-66
2023/10/30 02:17:51;;;;;;;1.17;0.25;;;;;;;15.03;100.00;100463.81;5046359;28;20036;-66
2023/10/30 02:20:17;;;;;;;0.95;0.30;;;;;;;15.04;100.00;100462.81;5048154;28;20037;-65
2023/10/30 02:22:42;;;;;;;2.10;0.20;;;;;;;15.04;100.00;100457.56;5046188;28;20509;-65
2023/10/30 02:25:08;;;;;;;2.05;0.30;;;;;;;15.05;100.00;100453.94;5047094;28;20043;-65
2023/10/30 02:27:33;;;;;;;1.60;0.20;;;;;;;15.06;100.00;100450.34;5045578;28;20037;-65
2023/10/30 02:29:59;;;;;;;1.38;0.20;;;;;;;15.06;100.00;100452.97;5045751;28;20071;-65
2023/10/30 02:32:24;;;;;;;0.77;0.20;;;;;;;15.06;100.00;100450.34;5049246;28;20028;-65
2023/10/30 02:34:50;;;;;;;1.20;0.30;;;;;;;15.06;100.00;100445.09;5049120;28;20539;-66
2023/10/30 02:37:15;;;;;;;2.30;0.30;;;;;;;15.07;100.00;100446.72;5050732;28;20021;-65
2023/10/30 02:39:41;;;;;;;0.88;0.30;;;;;;;15.07;100.00;100436.22;5047087;28;20031;-66
2023/10/30 02:42:08;;;;;;;1.58;0.30;;;;;;;15.07;100.00;100428.34;5052357;28;20068;-65
2023/10/30 02:44:34;;;;;;;1.83;0.30;;;;;;;15.04;100.00;100413.78;5049656;28;20128;-66
2023/10/30 02:46:59;;;;;;;5.93;0.40;;;;;;;15.06;100.00;100405.72;5049767;28;20109;-65
2023/10/30 02:49:25;;;;;;;3.00;0.55;;;;;;;15.10;100.00;100388.66;5051682;28;20122;-66
2023/10/30 02:51:51;;;;;;;2.13;0.40;;;;;;;15.11;100.00;100387.66;5053216;28;20045;-65
2023/10/30 02:54:16;;;;;;;0.98;0.22;;;;;;;15.09;100.00;100398.31;5055383;28;20044;-65
2023/10/30 02:56:42;;;;;;;0.90;0.40;;;;;;;15.06;100.00;100406.53;5049888;28;20037;-66
2023/10/30 02:59:08;;;;;;;0.50;0.20;;;;;;;15.04;100.00;100424.28;5051981;28;20048;-65
2023/10/30 03:01:33;;;;;;;1.00;0.20;;;;;;;15.04;100.00;100418.22;5049697;28;20032;-65
2023/10/30 03:04:00;;;;;;;1.88;0.43;;;;;;;15.05;100.00;100407.53;5053649;28;20109;-65
2023/10/30 03:06:26;;;;;;;0.77;0.22;;;;;;;15.06;100.00;100395.22;5055988;28;20040;-65
2023/10/30 03:08:51;;;;;;;1.55;0.28;;;;;;;15.07;100.00;100396.88;5051255;28;20036;-65
2023/10/30 03:11:17;;;;;;;1.20;0.28;;;;;;;15.07;100.00;100402.94;5054655;28;20040;-66
2023/10/30 03:13:42;;;;;;;2.60;0.45;;;;;;;15.08;100.00;100406.38;5043690;28;20032;-66
2023/10/30 03:16:08;;;;;;;0.63;0.30;;;;;;;15.09;100.00;100403.56;5050122;28;20037;-66
2023/10/30 03:18:34;;;;;;;1.15;0.30;;;;;;;15.11;100.00;100400.78;5046820;28;20047;-65
2023/10/30 03:21:00;;;;;;;0.63;0.20;;;;;;;15.11;100.00;100406.03;5055413;28;20033;-65
2023/10/30 03:23:26;;;;;;;2.78;0.30;;;;;;;15.11;100.00;100393.72;5050950;28;20573;-66
2023/10/30 03:25:51;;;;;;;1.15;0.30;;;;;;;15.13;100.00;100409.25;5048742;28;20033;-64
2023/10/30 03:28:17;;;;;;;1.70;0.85;;;;;;;15.16;100.00;100414.16;5051712;28;20032;-65
2023/10/30 03:30:42;;;;;;;2.25;0.30;;;;;;;15.18;100.00;100417.44;5045677;28;20972;-65
2023/10/30 03:33:08;;;;;;;1.27;0.30;;;;;;;15.18;100.00;100418.25;5057071;28;20024;-66
2023/10/30 03:35:37;;;;;;;1.33;0.10;;;;;;;15.21;100.00;100430.19;5050275;28;20048;-65
2023/10/30 03:38:03;;;;;;;1.52;0.38;;;;;;;15.23;100.00;100436.09;5046361;28;20032;-65
2023/10/30 03:40:28;;;;;;;0.65;0.20;;;;;;;15.22;100.00;100431.84;5049889;28;20039;-65
2023/10/30 03:42:53;;;;;;;0.88;0.28;;;;;;;15.22;100.00;100439.72;5049672;28;20094;-66
2023/10/30 03:45:19;;;;;;;0.90;0.20;;;;;;;15.23;100.00;100446.59;5050025;28;20714;-66
2023/10/30 03:47:45;;;;;;;2.28;0.63;;;;;;;15.22;100.00;100430.03;5048009;28;20474;-66
2023/10/30 03:50:12;;;;;;;1.60;0.15;;;;;;;15.27;100.00;100437.38;5052471;28;20045;-65
2023/10/30 03:52:39;;;;;;;0.57;0.20;;;;;;;15.28;100.00;100433.75;5050616;28;20371;-66
2023/10/30 03:55:04;;;;;;;0.45;0.30;;;;;;;15.30;100.00;100439.66;5048138;28;20021;-65
2023/10/30 03:57:30;;;;;;;2.65;0.30;;;;;;;15.34;100.00;100437.50;5049043;28;20098;-66
2023/10/30 03:59:56;;;;;;;1.75;0.13;;;;;;;15.36;100.00;100422.38;5049641;28;20529;-66
2023/10/30 04:02:22;;;;;;;3.05;0.10;;;;;;;15.37;100.00;100411.72;5050361;28;20037;-66
2023/10/30 04:04:47;;;;;;;0.90;0.10;;;;;;;15.41;100.00;100405.13;5048316;28;20047;-66
2023/10/30 04:07:13;;;;;;;3.40;0.10;;;;;;;15.40;100.00;100398.22;5049208;28;20048;-67
2023/10/30 04:09:38;;;;;;;1.23;0.10;;;;;;;15.43;100.00;100405.75;5049421;28;20033;-65
2023/10/30 04:12:04;;;;;;;0.85;0.20;;;;;;;15.43;100.00;100415.44;5051083;28;20037;-66
2023/10/30 04:14:30;;;;;;;1.08;0.20;;;;;;;15.45;100.00;100410.84;5048724;28;20060;-66
2023/10/30 04:16:57;;;;;;;0.70;0.00;;;;;;;15.44;100.00;100407.38;5049479;28;20029;-66
2023/10/30 04:19:22;;;;;;;0.50;0.10;;;;;;;15.44;100.00;100414.44;5052149;28;20060;-65
2023/10/30 04:21:48;;;;;;;1.58;0.10;;;;;;;15.46;100.00;100426.41;5051397;28;20050;-66
2023/10/30 04:24:13;;;;;;;1.20;0.15;;;;;;;15.47;100.00;100429.84;5049078;28;20025;-66
2023/10/30 04:26:39;;;;;;;1.30;0.10;;;;;;;15.45;100.00;100423.97;5046895;28;20041;-65
2023/10/30 04:29:04;;;;;;;0.80;0.10;;;;;;;15.46;100.00;100418.53;5049017;28;20032;-65
2023/10/30 04:31:30;;;;;;;0.47;0.10;;;;;;;15.43;100.00;100411.00;5047407;28;20417;-66
2023/10/30 04:33:55;;;;;;;1.00;0.20;;;;;;;15.44;100.00;100411.81;5050844;28;20025;-66
2023/10/30 04:36:21;;;;;;;0.30;0.10;;;;;;;15.44;100.00;100409.19;5050677;28;20029;-66
2023/10/30 04:38:47;;;;;;;2.05;0.15;;;;;;;15.44;100.00;100412.63;5048892;28;20029;-66
2023/10/30 04:41:13;;;;;;;0.10;0.00;;;;;;;15.47;100.00;100407.03;5049657;28;20028;-66
2023/10/30 04:43:38;;;;;;;2.90;0.10;;;;;;;15.48;100.00;100408.66;5048068;28;20028;-66
2023/10/30 04:46:04;;;;;;;1.92;0.15;;;;;;;15.49;100.00;100404.22;5051078;28;20071;-66
2023/10/30 04:48:30;;;;;;;2.95;0.17;;;;;;;15.48;100.00;100403.41;5047603;28;20150;-66
2023/10/30 04:50:55;;;;;;;1.15;0.10;;;;;;;15.51;100.00;100407.50;5047646;28;20520;-66
2023/10/30 04:53:21;;;;;;;0.60;0.17;;;;;;;15.50;100.00;100406.69;5049072;28;20115;-66
2023/10/30 04:55:50;;;;;;;0.93;0.28;;;;;;;15.50;100.00;100411.94;5049176;28;20465;-66
2023/10/30 04:58:16;;;;;;;1.50;0.10;;;;;;;15.50;100.00;100417.19;5047681;28;20021;-65
2023/10/30 05:00:42;;;;;;;1.10;0.10;;;;;;;15.48;100.00;100419.16;5045730;28;20405;-66
2023/10/30 05:03:09;;;;;;;0.30;0.10;;;;;;;15.48;100.00;100424.41;5046953;28;20050;-66
2023/10/30 05:05:36;;;;;;;2.42;0.32;;;;;;;15.47;100.00;100424.59;5045096;28;20036;-66
2023/10/30 05:08:02;;;;;;;3.33;0.17;;;;;;;15.45;100.00;100422.16;5046220;28;20033;-66
2023/10/30 05:10:27;;;;;;;2.85;0.10;;;;;;;15.43;100.00;100411.00;5045902;28;20104;-65
2023/10/30 05:12:52;;;;;;;1.05;0.10;;;;;;;15.42;100.00;100408.56;5049321;28;20033;-65
2023/10/30 05:15:18;;;;;;;1.65;0.10;;;;;;;15.42;100.00;100406.75;5047119;28;20029;-66
2023/10/30 05:17:44;;;;;;;1.23;0.10;;;;;;;15.46;100.00;100410.66;5046681;28;20566;-66
2023/10/30 05:20:11;;;;;;;0.95;0.10;;;;;;;15.45;100.00;100409.03;5047465;28;20128;-66
2023/10/30 05:22:36;;;;;;;0.75;0.17;;;;;;;15.43;100.00;100407.56;5049068;28;20041;-66
2023/10/30 05:25:02;;;;;;;1.65;0.10;;;;;;;15.42;100.00;100398.06;5049183;28;20115;-67
2023/10/30 05:27:28;;;;;;;5.05;0.20;;;;;;;15.41;100.00;100397.25;5047234;28;20036;-67
2023/10/30 05:29:54;;;;;;;0.32;0.10;;;;;;;15.42;100.00;100398.06;5049090;28;20032;-68
2023/10/30 05:32:20;;;;;;;1.10;0.13;;;;;;;15.44;100.00;100403.94;5046738;28;20024;-66
2023/10/30 05:34:46;;;;;;;4.63;0.50;;;;;;;15.44;100.00;100406.56;5047158;28;20382;-67
2023/10/30 05:37:12;;;;;;;2.47;0.20;;;;;;;15.42;100.00;100414.63;5049002;28;20508;-67
2023/10/30 05:39:38;;;;;;;2.97;0.20;;;;;;;15.39;100.00;100408.91;5048499;28;20037;-67
2023/10/30 05:42:04;;;;;;;0.60;0.10;;;;;;;15.36;100.00;100415.31;5048983;28;20054;-67
2023/10/30 05:44:30;;;;;;;2.85;0.25;;;;;;;15.35;100.00;100412.88;5046493;28;20044;-69
2023/10/30 05:46:56;;;;;;;1.55;0.10;;;;;;;15.33;100.00;100413.06;5047590;28;20049;-67
2023/10/30 05:49:22;;;;;;;0.32;0.10;;;;;;;15.33;100.00;100415.69;5044739;28;20060;-67
2023/10/30 05:51:47;;;;;;;1.70;0.20;;;;;;;15.32;100.00;100408.78;5049232;28;20080;-67
2023/10/30 05:54:13;;;;;;;1.00;0.10;;;;;;;15.31;100.00;100398.47;5054764;28;20029;-67
2023/10/30 05:56:38;;;;;;;3.20;0.43;;;;;;;15.25;100.00;100386.88;5048142;28;20104;-66
2023/10/30 05:59:04;;;;;;;0.50;0.17;;;;;;;15.24;100.00;100372.09;5044318;28;20021;-66
2023/10/30 06:01:29;;;;;;;6.10;0.20;;;;;;;15.23;100.00;100379.16;5048789;28;20044;-66
2023/10/30 06:03:56;;;;;;;0.70;0.20;;;;;;;15.23;100.00;100378.34;5043824;28;20029;-66
2023/10/30 06:06:21;;;;;;;3.78;0.30;;;;;;;15.24;100.00;100387.84;5045297;28;20029;-66
2023/10/30 06:08:47;;;;;;;0.70;0.20;;;;;;;15.24;100.00;100383.41;5046151;28;20513;-66
2023/10/30 06:11:12;;;;;;;1.60;0.32;;;;;;;15.27;100.00;100390.13;5047975;28;20025;-65
2023/10/30 06:13:38;;;;;;;0.82;0.20;;;;;;;15.29;100.00;100390.78;5046021;28;20040;-66
2023/10/30 06:16:04;;;;;;;1.60;0.20;;;;;;;15.27;100.00;100384.88;5049953;28;20033;-65
2023/10/30 06:18:29;;;;;;;2.50;0.13;;;;;;;15.25;100.00;100384.25;5046418;28;20118;-66
2023/10/30 06:20:56;;;;;;;1.15;0.20;;;;;;;15.28;100.00;100389.13;5047458;28;20500;-66
2023/10/30 06:23:21;;;;;;;1.98;0.22;;;;;;;15.28;100.00;100395.19;5047299;28;20041;-66
2023/10/30 06:25:48;;;;;;;0.38;0.15;;;;;;;15.28;100.00;100392.56;5044899;28;20548;-65
2023/10/30 06:28:15;;;;;;;2.25;0.20;;;;;;;15.31;100.00;100393.22;5043050;28;20025;-67
2023/10/30 06:30:41;;;;;;;2.10;0.20;;;;;;;15.32;100.00;100392.22;5042837;28;20041;-66
2023/10/30 06:33:06;;;;;;;0.93;0.28;;;;;;;15.33;100.00;100386.00;5039515;28;21163;-66
2023/10/30 06:35:32;;;;;;;1.38;0.20;;;;;;;15.32;100.00;100395.66;5049024;28;20442;-66
2023/10/30 06:37:57;;;;;;;1.58;0.20;;;;;;;15.34;100.00;100391.06;5044761;28;20078;-66
2023/10/30 06:40:23;;;;;;;3.17;0.40;;;;;;;15.30;100.00;100400.28;5046677;28;20090;-67
2023/10/30 06:42:48;;;;;;;0.68;0.20;;;;;;;15.32;100.00;100406.16;5042844;28;20048;-66
2023/10/30 06:45:13;;;;;;;0.50;0.25;;;;;;;15.34;100.00;100414.69;5044212;28;20104;-65
2023/10/30 06:47:39;;;;;;;1.27;0.30;;;;;;;15.36;100.00;100415.31;5044100;28;20410;-66
2023/10/30 06:50:05;;;;;;;0.70;0.20;;;;;;;15.36;100.00;100415.31;5048924;28;20045;-66
2023/10/30 06:52:30;;;;;;;0.82;0.30;;;;;;;15.36;100.00;100415.31;5038960;28;20112;-66
2023/10/30 06:54:56;;;;;;;3.15;0.30;;;;;;;15.35;100.00;100418.13;5047861;28;20474;-66
2023/10/30 06:57:21;;;;;;;1.30;0.25;;;;;;;15.36;100.00;100417.94;5046309;28;20068;-66
2023/10/30 06:59:49;;;;;;;2.70;0.40;;;;;;;15.41;100.00;100433.19;5044594;28;20108;-66
2023/10/30 07:02:14;;;;;;;0.75;0.30;;;;;;;15.41;100.00;100438.44;5046488;28;20033;-66
2023/10/30 07:04:40;;;;;;;2.60;0.30;;;;;;;15.43;100.00;100439.06;5048310;28;20049;-66
2023/10/30 07:07:05;;;;;;;1.17;0.40;;;;;;;15.41;100.00;100438.44;5046728;28;20049;-66
2023/10/30 07:09:30;;;;;;;0.77;0.45;;;;;;;15.38;100.00;100434.34;5043728;28;20128;-66
2023/10/30 07:11:56;;;;;;;2.08;1.00;;;;;;;15.41;100.00;100439.25;5046679;28;20060;-66
2023/10/30 07:14:21;;;;;;;2.10;0.50;;;;;;;15.41;100.00;100452.38;5045187;28;20120;-66
2023/10/30 07:16:47;;;;;;;2.20;0.52;;;;;;;15.44;100.00;100444.16;5047198;28;20037;-66
2023/10/30 07:19:12;;;;;;;0.90;0.47;;;;;;;15.48;100.00;100444.59;5047521;28;20041;-66
2023/10/30 07:21:37;;;;;;;2.00;0.40;;;;;;;15.50;100.00;100447.88;5048877;28;20037;-66
2023/10/30 07:24:03;;;;;;;1.00;0.30;;;;;;;15.48;100.00;100442.81;5050505;28;20037;-65
2023/10/30 07:26:29;;;;;;;0.95;0.40;;;;;;;15.50;100.00;100443.44;5050586;28;20032;-66
2023/10/30 07:28:55;;;;;;;2.72;0.45;;;;;;;15.50;100.00;100447.88;5049357;28;20074;-66
2023/10/30 07:31:20;;;;;;;1.15;0.40;;;;;;;15.53;100.00;100445.72;5046522;28;20102;-65
2023/10/30 07:33:49;;;;;;;2.30;0.40;;;;;;;15.59;100.00;100439.78;5049611;28;20116;-66
2023/10/30 07:36:14;;;;;;;1.10;0.35;;;;;;;15.57;100.00;100439.16;5052445;28;20028;-66
2023/10/30 07:38:41;;;;;;;0.52;0.20;;;;;;;15.57;100.00;100441.78;5050907;28;20047;-66
2023/10/30 07:41:08;;;;;;;1.98;0.30;;;;;;;15.56;100.00;100436.66;5053609;28;20071;-66
2023/10/30 07:43:34;;;;;;;0.50;0.20;;;;;;;15.55;100.00;100441.09;5048951;28;20032;-66
2023/10/30 07:45:59;;;;;;;1.15;0.30;;;;;;;15.58;100.00;100446.03;5050794;28;20494;-66
2023/10/30 07:48:26;;;;;;;2.10;0.20;;;;;;;15.57;100.00;100446.22;5047904;28;20162;-66
2023/10/30 07:50:52;;;;;;;2.22;0.40;;;;;;;15.58;100.00;100446.03;5050219;28;20091;-66
2023/10/30 07:53:18;;;;;;;1.38;0.30;;;;;;;15.60;100.00;100437.94;5050577;28;20030;-67
2023/10/30 07:55:45;;;;;;;0.68;0.20;;;;;;;15.57;100.00;100440.97;5048747;28;20048;-65
2023/10/30 07:58:12;;;;;;;0.98;0.30;;;;;;;15.59;100.00;100437.16;5051223;28;20028;-65
2023/10/30 08:00:38;;;;;;;0.50;0.20;;;;;;;15.59;100.00;100442.41;5049699;28;20104;-65
2023/10/30 08:03:05;;;;;;;1.48;0.20;;;;;;;15.56;100.00;100440.13;5053587;28;20052;-66
2023/10/30 08:05:32;;;;;;;1.13;0.30;;;;;;;15.59;100.00;100442.41;5049774;28;20432;-66
2023/10/30 08:07:57;;;;;;;1.58;0.38;;;;;;;15.59;100.00;100445.03;5049801;28;20035;-66
2023/10/30 08:10:23;;;;;;;5.20;0.35;;;;;;;15.62;100.00;100437.78;5049899;28;20021;-66
2023/10/30 08:12:48;;;;;;;1.00;0.30;;;;;;;15.62;100.00;100437.78;5054185;28;20021;-66
2023/10/30 08:15:14;;;;;;;1.30;0.35;;;;;;;15.67;100.00;100438.06;5046779;28;20474;-66
2023/10/30 08:17:40;;;;;;;1.05;0.40;;;;;;;15.74;100.00;100452.94;5048986;28;20071;-66
2023/10/30 08:20:06;;;;;;;2.15;0.20;;;;;;;15.78;100.00;100448.13;5050957;28;20031;-66
2023/10/30 08:22:32;;;;;;;0.60;0.20;;;;;;;15.73;100.00;100450.47;5054790;28;20044;-66
2023/10/30 08:24:59;;;;;;;2.35;0.20;;;;;;;15.73;100.00;100437.34;5048123;28;20364;-66
2023/10/30 08:27:24;;;;;;;4.28;0.43;;;;;;;15.73;100.00;100434.72;5044138;28;20052;-66
2023/10/30 08:29:50;;;;;;;3.75;0.30;;;;;;;15.76;100.00;100437.00;5049448;28;20067;-66
2023/10/30 08:32:15;;;;;;;1.20;0.25;;;;;;;15.78;100.00;100425.31;5048915;28;20031;-66
2023/10/30 08:34:41;;;;;;;0.60;0.20;;;;;;;15.79;100.00;100423.50;5049123;28;20036;-66
2023/10/30 08:37:06;;;;;;;1.58;0.38;;;;;;;15.81;100.00;100424.97;5049481;28;20039;-66
2023/10/30 08:39:31;;;;;;;2.65;0.38;;;;;;;15.85;100.00;100420.16;5049241;28;20065;-67
2023/10/30 08:41:57;;;;;;;0.70;0.20;;;;;;;15.81;100.00;100416.25;5045098;28;20440;-66
2023/10/30 08:44:22;;;;;;;1.00;0.20;;;;;;;15.80;100.00;100412.81;5051534;28;20458;-67
2023/10/30 08:46:48;;;;;;;0.70;0.30;;;;;;;15.78;100.00;100408.72;5049291;28;20539;-66
2023/10/30 08:49:14;;;;;;;2.85;0.40;;;;;;;15.79;100.00;100410.38;5050026;28;20056;-66
2023/10/30 08:51:41;;;;;;;3.97;0.73;;;;;;;15.79;100.00;100405.94;5049502;28;20056;-66
2023/10/30 08:54:06;;;;;;;1.08;0.52;;;;;;;15.82;100.00;100412.63;5050399;28;20063;-66
2023/10/30 08:56:32;;;;;;;5.13;0.57;;;;;;;15.84;100.00;100403.59;5048929;28;20060;-66
2023/10/30 08:58:57;;;;;;;2.53;0.45;;;;;;;15.81;100.00;100400.50;5049434;28;20431;-67
2023/10/30 09:01:23;;;;;;;0.52;0.20;;;;;;;15.79;100.00;100405.13;5044920;28;21881;-66
2023/10/30 09:03:48;;;;;;;2.72;0.32;;;;;;;15.78;100.00;100393.78;5047566;28;20035;-67
2023/10/30 09:06:14;;;;;;;0.40;0.20;;;;;;;15.77;100.00;100386.91;5050100;28;20028;-68
2023/10/30 09:08:39;;;;;;;1.58;0.20;;;;;;;15.85;100.00;100391.25;5049228;28;20041;-66
2023/10/30 09:22:18;;;;;;;;;;;;;;;16.00;100.00;100386.03;5052050;28;20405;-65
2023/10/30 09:24:44;;;;;;;3.75;0.45;;;;;;;16.00;100.00;100386.84;5043382;28;20316;-65
2023/10/30 09:27:09;;;;;;;4.25;0.40;;;;;;;16.03;100.00;100375.97;5042635;28;20029;-66
2023/10/30 09:29:35;;;;;;;0.75;0.30;;;;;;;16.07;100.00;100382.47;5042859;28;20087;-65
2023/10/30 09:32:03;;;;;;;0.43;0.20;;;;;;;16.10;100.00;100387.34;5037650;28;20521;-65
2023/10/30 09:34:29;;;;;;;1.80;0.30;;;;;;;16.14;100.00;100379.91;5045052;28;20056;-66
2023/10/30 09:36:54;;;;;;;1.02;0.30;;;;;;;16.11;100.00;100373.22;5042570;28;20396;-66
2023/10/30 09:39:20;;;;;;;2.20;0.20;;;;;;;16.12;100.00;100379.28;5043081;28;20127;-65
2023/10/30 09:41:46;;;;;;;2.83;0.32;;;;;;;16.14;100.00;100383.38;5043616;28;20041;-65
2023/10/30 09:44:12;;;;;;;1.10;0.30;;;;;;;16.19;100.00;100369.69;5043960;28;20041;-65
2023/10/30 09:46:39;;;;;;;2.75;1.75;;;;;;;16.16;100.00;100359.53;5042820;28;20032;-65
2023/10/30 09:49:06;;;;;;;2.17;0.50;;;;;;;16.13;100.00;100337.06;5041332;28;20122;-65
2023/10/30 09:51:32;;;;;;;2.15;0.75;;;;;;;16.13;100.00;100337.06;5044395;28;20057;-66
2023/10/30 09:53:58;;;;;;;1.65;0.70;;;;;;;16.15;100.00;100332.44;5041664;28;20045;-66
2023/10/30 09:56:26;;;;;;;1.15;0.40;;;;;;;16.22;100.00;100325.44;5043321;28;20025;-66
2023/10/30 09:58:52;;;;;;;4.00;0.30;;;;;;;16.34;100.00;100310.00;5045380;28;20125;-66
2023/10/30 10:01:19;;;;;;;0.68;0.20;;;;;;;16.45;100.00;100316.59;5042434;28;20378;-66
2023/10/30 10:03:44;;;;;;;1.25;0.30;;;;;;;16.49;100.00;100316.03;5042616;28;20037;-67
2023/10/30 10:06:10;;;;;;;1.73;0.30;;;;;;;16.50;100.00;100301.91;5042989;28;20033;-66
2023/10/30 10:08:36;;;;;;;0.73;0.25;;;;;;;16.50;100.00;100303.72;5043710;28;20502;-66
2023/10/30 10:11:04;;;;;;;3.33;0.85;;;;;;;16.50;100.00;100303.72;5037829;28;20037;-66
2023/10/30 10:13:37;;;;;;;1.30;0.30;;;;;;;16.52;100.00;100296.44;5020316;28;20029;-66
2023/10/30 10:16:03;;;;;;;3.38;0.38;;;;;;;16.48;100.00;100298.63;5025618;28;20390;-66
2023/10/30 10:18:30;;;;;;;2.20;0.60;;;;;;;16.49;100.00;100287.13;5023680;28;20060;-66
2023/10/30 10:21:03;;;;;;;1.05;0.30;;;;;;;16.48;100.00;100289.94;5024076;28;20069;-65
2023/10/30 10:23:36;;;;;;;0.50;0.20;;;;;;;16.48;100.00;100296.00;5009310;28;20043;-66
2023/10/30 10:26:13;;;;;;;1.80;0.20;;;;;;;16.52;100.00;100289.38;5010824;28;20037;-65
2023/10/30 10:28:39;;;;;;;1.38;0.30;;;;;;;16.46;100.00;100286.69;5009960;28;20033;-66
2023/10/30 10:31:04;;;;;;;2.47;0.50;;;;;;;16.41;100.00;100279.34;5010829;28;20026;-66
2023/10/30 10:33:32;;;;;;;1.58;0.28;;;;;;;16.43;100.00;100281.78;5004167;28;20084;-66
2023/10/30 10:36:00;;;;;;;1.05;0.20;;;;;;;16.43;100.00;100281.78;5017155;28;20516;-66
2023/10/30 10:38:26;;;;;;;3.05;0.60;;;;;;;16.44;100.00;100270.28;5005638;28;20052;-66
2023/10/30 10:40:52;;;;;;;0.88;0.30;;;;;;;16.41;100.00;100268.84;5007016;28;20018;-66
2023/10/30 10:43:20;;;;;;;3.97;0.43;;;;;;;16.38;100.00;100269.19;5001118;28;20084;-66
2023/10/30 10:45:53;;;;;;;1.75;0.25;;;;;;;16.40;100.00;100254.06;5004398;28;20187;-67
2023/10/30 10:48:21;;;;;;;4.55;0.28;;;;;;;16.45;100.00;100259.56;5006574;28;20104;-66
2023/10/30 10:50:47;;;;;;;1.55;0.30;;;;;;;16.53;100.00;100253.38;5007204;28;20042;-66
2023/10/30 10:53:14;;;;;;;2.58;0.65;;;;;;;16.53;100.00;100242.84;5009867;28;20034;-66
2023/10/30 10:55:42;;;;;;;4.05;0.60;;;;;;;16.56;100.00;100239.81;5007009;28;20026;-66
2023/10/30 10:58:12;;;;;;;5.60;0.30;;;;;;;16.56;100.00;100238.00;5007268;28;20514;-66
2023/10/30 11:00:44;;;;;;;1.52;0.40;;;;;;;16.54;100.00;100237.38;5000743;28;20030;-67
2023/10/30 11:03:10;;;;;;;3.53;0.30;;;;;;;16.56;100.00;100230.13;5002062;28;20764;-66
2023/10/30 11:05:37;;;;;;;1.13;0.20;;;;;;;16.65;100.00;100215.06;5009610;28;20053;-66
2023/10/30 11:08:30;;;;;;;1.08;0.20;;;;;;;16.71;100.00;100222.19;5009087;28;20041;-66
2023/10/30 11:11:11;;;;;;;1.60;0.55;;;;;;;16.73;100.00;100209.66;5009048;28;20041;-65
2023/10/30 11:13:53;;;;;;;4.25;0.30;;;;;;;16.77;100.00;100210.09;5009321;28;20136;-66
2023/10/30 11:16:48;;;;;;;2.08;0.35;;;;;;;16.77;100.00;100200.38;5009250;28;20030;-65
2023/10/30 11:19:18;;;;;;;5.20;0.30;;;;;;;16.76;100.00;100190.03;5008343;28;20107;-66
2023/10/30 11:21:47;;;;;;;4.85;0.63;;;;;;;16.75;100.00;100191.06;5012230;28;20046;-65
2023/10/30 11:24:38;;;;;;;4.07;0.28;;;;;;;16.72;100.00;100192.25;5011771;28;20589;-66